Time;durP1;ratioP1;P1;durP2;ratioP2;P2;SDS_P1;SDS_P2;PMS_P1;PMS_P2;Temp;Humidity;BMP_temperature;BMP_pressure;BME280_temperature;BME280_humidity;BME280_pressure;Samples;Min_cycle;Max_cycle;Signal;HPM_P1;HPM_P2
2022/01/28 00:00:18;;;;;;;3.20;1.40;;;9.20;78.30;;;;;;5024285;28;20032;-86
2022/01/28 00:03:26;;;;;;;4.72;1.52;;;9.10;78.20;;;;;;4980570;28;20034;-86
2022/01/28 00:05:34;;;;;;;2.97;1.30;;;9.10;78.20;;;;;;5008452;28;20372;-86
2022/01/28 00:08:01;;;;;;;3.80;1.52;;;9.10;78.30;;;;;;5018322;28;20017;-83
2022/01/28 00:10:28;;;;;;;3.45;1.40;;;9.10;78.30;;;;;;5012316;28;20025;-86
2022/01/28 00:15:30;;;;;;;2.28;1.33;;;9.10;78.30;;;;;;5009242;28;20034;-86
2022/01/28 00:21:04;;;;;;;2.20;1.10;;;9.10;78.20;;;;;;5007535;28;20040;-87
2022/01/28 00:39:49;;;;;;;2.92;1.40;;;8.90;78.20;;;;;;5003157;28;20030;-86
2022/01/28 00:42:15;;;;;;;2.60;1.38;;;8.90;78.30;;;;;;5010642;28;20025;-86
2022/01/28 00:44:41;;;;;;;2.92;1.45;;;8.90;78.30;;;;;;4998548;28;20456;-85
2022/01/28 00:47:07;;;;;;;3.03;1.50;;;8.90;78.30;;;;;;4991486;28;20113;-85
2022/01/28 00:49:38;;;;;;;4.32;1.60;;;8.80;78.20;;;;;;5008963;28;20124;-85
2022/01/28 00:52:04;;;;;;;3.10;1.40;;;8.90;78.30;;;;;;4994557;28;20041;-86
2022/01/28 00:54:30;;;;;;;4.63;1.50;;;8.80;78.20;;;;;;5014672;28;20025;-86
2022/01/28 00:56:56;;;;;;;2.28;1.38;;;8.80;78.20;;;;;;4979256;28;20057;-86
2022/01/28 00:59:25;;;;;;;3.85;1.23;;;8.80;78.20;;;;;;4999760;28;20030;-85
2022/01/28 01:01:50;;;;;;;2.83;1.50;;;8.80;78.80;;;;;;4997430;28;20378;-86
2022/01/28 01:04:17;;;;;;;3.22;1.30;;;8.80;78.20;;;;;;5006214;28;20030;-86
2022/01/28 01:06:43;;;;;;;3.33;1.50;;;8.80;78.20;;;;;;5025065;28;20041;-86
2022/01/28 01:09:12;;;;;;;3.33;1.75;;;8.70;78.10;;;;;;4997913;28;20018;-86
2022/01/28 01:11:40;;;;;;;2.33;1.35;;;8.70;78.10;;;;;;4993912;28;20030;-86
2022/01/28 01:14:06;;;;;;;3.05;1.40;;;8.70;78.10;;;;;;4990296;28;20029;-87
2022/01/28 01:16:43;;;;;;;3.80;1.40;;;8.70;78.10;;;;;;5006043;28;20440;-85
2022/01/28 01:19:20;;;;;;;2.17;1.40;;;8.70;78.20;;;;;;5001971;28;20032;-86
2022/01/28 01:21:47;;;;;;;3.08;1.30;;;8.70;78.20;;;;;;5017543;28;20033;-86
2022/01/28 01:24:21;;;;;;;2.28;1.10;;;8.70;78.20;;;;;;5019428;28;20109;-86
2022/01/28 01:26:47;;;;;;;4.53;1.45;;;8.70;78.20;;;;;;5026906;28;20082;-86
2022/01/28 01:29:18;;;;;;;1.40;1.17;;;8.60;78.20;;;;;;5016384;28;20045;-85
2022/01/28 01:31:45;;;;;;;3.42;1.40;;;8.60;78.10;;;;;;5012219;28;20032;-86
2022/01/28 01:34:16;;;;;;;2.97;1.25;;;8.60;78.10;;;;;;5028056;28;20026;-86
2022/01/28 01:36:42;;;;;;;2.38;1.30;;;8.60;78.20;;;;;;4991571;28;20110;-86
2022/01/28 01:39:09;;;;;;;2.35;1.40;;;8.50;78.10;;;;;;5015888;28;20025;-87
2022/01/28 01:41:43;;;;;;;1.55;1.30;;;8.50;78.10;;;;;;5049325;28;20501;-87
2022/01/28 01:44:32;;;;;;;3.15;1.30;;;8.50;78.10;;;;;;5020060;28;20083;-87
2022/01/28 01:52:23;;;;;;;2.20;1.40;;;8.40;78.10;;;;;;5020728;28;20029;-87
2022/01/28 01:54:50;;;;;;;2.08;1.40;;;8.40;78.10;;;;;;5031360;28;20048;-86
2022/01/28 01:57:17;;;;;;;1.88;1.27;;;8.40;78.20;;;;;;5011768;28;20086;-87
2022/01/28 01:59:43;;;;;;;1.58;1.20;;;8.40;78.20;;;;;;5016506;28;20040;-86
2022/01/28 02:02:10;;;;;;;2.72;1.30;;;8.40;78.20;;;;;;4996182;28;20026;-86
2022/01/28 02:04:37;;;;;;;2.42;1.48;;;8.40;78.20;;;;;;5007005;28;20088;-86
2022/01/28 02:07:04;;;;;;;3.00;1.40;;;8.40;78.20;;;;;;5023746;28;20040;-87
2022/01/28 02:09:30;;;;;;;2.10;1.63;;;8.40;78.20;;;;;;5011577;28;20075;-86
2022/01/28 02:11:56;;;;;;;3.10;1.35;;;8.30;78.10;;;;;;5018732;28;20637;-87
2022/01/28 02:14:22;;;;;;;2.13;1.27;;;8.30;78.20;;;;;;5025341;28;20088;-87
2022/01/28 02:16:48;;;;;;;1.90;1.30;;;8.30;78.10;;;;;;5019025;28;20482;-86
2022/01/28 02:19:14;;;;;;;2.10;1.20;;;8.30;78.20;;;;;;5038097;28;20030;-86
2022/01/28 02:21:49;;;;;;;2.60;1.42;;;8.30;78.10;;;;;;5024309;28;20055;-86
2022/01/28 02:24:19;;;;;;;3.20;1.60;;;8.30;78.20;;;;;;5007528;28;20037;-87
2022/01/28 02:26:45;;;;;;;2.70;1.30;;;8.30;78.10;;;;;;5014891;28;20037;-86
2022/01/28 02:29:26;;;;;;;4.47;1.58;;;8.20;78.10;;;;;;5016466;28;20069;-87
2022/01/28 02:31:52;;;;;;;2.80;1.33;;;8.30;78.20;;;;;;5015247;28;20021;-86
2022/01/28 02:34:18;;;;;;;2.95;1.52;;;8.20;78.10;;;;;;5032520;28;20017;-85
2022/01/28 02:36:44;;;;;;;1.88;1.20;;;8.20;78.20;;;;;;5027723;28;20030;-86
2022/01/28 02:39:11;;;;;;;2.28;1.25;;;8.20;78.20;;;;;;5013069;28;20045;-87
2022/01/28 02:41:41;;;;;;;1.85;1.23;;;8.10;78.10;;;;;;5010719;28;20048;-86
2022/01/28 02:46:37;;;;;;;1.63;1.27;;;8.10;78.20;;;;;;5018949;28;20021;-86
2022/01/28 02:49:09;;;;;;;3.22;1.48;;;8.10;78.20;;;;;;5047798;28;20059;-87
2022/01/28 02:51:35;;;;;;;3.00;1.42;;;8.10;78.20;;;;;;5024832;28;20040;-87
2022/01/28 02:54:12;;;;;;;3.22;1.48;;;8.10;78.20;;;;;;5015429;28;20040;-87
2022/01/28 02:56:41;;;;;;;2.60;1.27;;;8.10;78.20;;;;;;5016850;28;20041;-87
2022/01/28 02:59:07;;;;;;;2.38;1.38;;;8.00;78.10;;;;;;5017506;28;20361;-86
2022/01/28 03:01:33;;;;;;;3.08;1.30;;;8.00;78.10;;;;;;5017749;28;20025;-86
2022/01/28 03:04:02;;;;;;;3.47;1.20;;;8.00;78.20;;;;;;5009233;28;20097;-86
2022/01/28 03:06:28;;;;;;;2.03;1.30;;;8.00;78.20;;;;;;5034573;28;20033;-87
2022/01/28 03:08:59;;;;;;;3.00;1.50;;;8.00;78.20;;;;;;5028906;28;20082;-87
2022/01/28 03:11:43;;;;;;;3.75;1.35;;;8.00;78.20;;;;;;5023669;28;20033;-85
2022/01/28 03:14:19;;;;;;;2.70;1.20;;;8.00;78.20;;;;;;5024331;28;20135;-86
2022/01/28 03:19:52;;;;;;;3.00;1.30;;;7.90;78.20;;;;;;5015454;28;20132;-86
2022/01/28 03:22:18;;;;;;;1.77;1.05;;;7.90;78.20;;;;;;5029613;28;20393;-86
2022/01/28 03:24:48;;;;;;;1.48;1.10;;;7.90;78.20;;;;;;5018421;28;20374;-86
2022/01/28 03:27:23;;;;;;;1.70;1.30;;;7.90;78.30;;;;;;5034885;28;20044;-87
2022/01/28 03:29:48;;;;;;;1.95;1.17;;;7.80;78.20;;;;;;5019593;28;20033;-86
2022/01/28 03:32:14;;;;;;;1.77;1.27;;;7.90;78.30;;;;;;5006222;28;20030;-86
2022/01/28 03:34:40;;;;;;;2.25;1.35;;;7.80;78.20;;;;;;5018509;28;20113;-86
2022/01/28 03:37:08;;;;;;;2.53;1.40;;;7.80;78.30;;;;;;5001944;28;20120;-87
2022/01/28 03:39:35;;;;;;;2.05;1.30;;;7.80;78.30;;;;;;4998271;28;20033;-87
2022/01/28 03:42:02;;;;;;;2.42;1.15;;;7.80;78.20;;;;;;5006628;28;20109;-87
2022/01/28 03:44:28;;;;;;;1.58;1.13;;;7.80;78.30;;;;;;5015200;28;20025;-86
2022/01/28 03:46:54;;;;;;;2.65;1.38;;;7.80;78.30;;;;;;5018207;28;20041;-86
2022/01/28 03:49:20;;;;;;;2.30;1.30;;;7.80;78.30;;;;;;5002271;28;20057;-86
2022/01/28 03:51:45;;;;;;;2.05;1.30;;;7.80;78.30;;;;;;5002496;28;20061;-86
2022/01/28 03:54:11;;;;;;;3.00;1.20;;;7.80;78.30;;;;;;4985122;28;20025;-86
2022/01/28 03:56:37;;;;;;;2.60;1.20;;;7.80;78.30;;;;;;5008401;28;20039;-87
2022/01/28 03:59:03;;;;;;;1.95;1.20;;;7.70;78.20;;;;;;5003712;28;20041;-86
2022/01/28 04:01:36;;;;;;;2.80;1.20;;;7.70;78.30;;;;;;5015194;28;20482;-86
2022/01/28 04:11:27;;;;;;;1.33;1.10;;;7.70;78.30;;;;;;5032834;28;20036;-85
2022/01/28 04:12:21;;;;;;;2.65;1.10;;;7.70;78.30;;;;;;5020794;28;20033;-85
2022/01/28 04:15:05;;;;;;;1.85;1.20;;;7.60;78.20;;;;;;5017296;28;20487;-86
2022/01/28 04:17:31;;;;;;;3.83;1.35;;;7.60;78.30;;;;;;5021553;28;20878;-86
2022/01/28 04:19:56;;;;;;;2.58;1.40;;;7.60;78.30;;;;;;5005381;28;20034;-86
2022/01/28 04:22:22;;;;;;;2.60;1.13;;;7.60;78.30;;;;;;5015641;28;20096;-86
2022/01/28 04:24:48;;;;;;;1.73;1.20;;;7.60;78.30;;;;;;5014352;28;20104;-86
2022/01/28 04:27:14;;;;;;;2.88;1.40;;;7.60;78.30;;;;;;5015800;28;20034;-86
2022/01/28 04:29:40;;;;;;;1.95;1.30;;;7.60;78.30;;;;;;5000788;28;20025;-86
2022/01/28 04:32:07;;;;;;;1.40;1.10;;;7.60;78.30;;;;;;5019629;28;20025;-87
2022/01/28 04:34:34;;;;;;;1.75;1.17;;;7.60;78.40;;;;;;5027110;28;20036;-85
2022/01/28 04:39:42;;;;;;;1.65;1.10;;;7.50;78.30;;;;;;5018292;28;20036;-85
2022/01/28 04:55:15;;;;;;;1.30;1.00;;;7.50;78.40;;;;;;5019820;28;20049;-85
2022/01/28 05:00:27;;;;;;;2.28;1.33;;;7.40;78.30;;;;;;5028981;28;20026;-85
2022/01/28 05:08:44;;;;;;;2.17;1.33;;;7.40;78.40;;;;;;5017080;28;20025;-86
2022/01/28 05:27:07;;;;;;;1.77;1.10;;;7.30;78.50;;;;;;4998505;28;20884;-86
2022/01/28 05:29:33;;;;;;;2.38;1.30;;;7.30;78.50;;;;;;5029903;28;20049;-86
2022/01/28 05:31:59;;;;;;;2.35;1.15;;;7.30;79.10;;;;;;4984724;28;20486;-85
2022/01/28 05:34:27;;;;;;;2.30;1.30;;;7.20;78.40;;;;;;5004175;28;20032;-85
2022/01/28 05:36:54;;;;;;;1.50;1.40;;;7.20;78.40;;;;;;4999138;28;20025;-85
2022/01/28 05:39:19;;;;;;;1.65;1.20;;;7.20;78.50;;;;;;4995916;28;20026;-86
2022/01/28 05:41:48;;;;;;;2.08;1.17;;;7.20;78.40;;;;;;5001231;28;20030;-86
2022/01/28 05:44:14;;;;;;;1.88;1.20;;;7.20;78.40;;;;;;4989691;28;20029;-86
2022/01/28 05:46:40;;;;;;;2.25;1.45;;;7.20;78.50;;;;;;5002972;28;20579;-85
2022/01/28 05:49:06;;;;;;;2.03;1.10;;;7.20;78.40;;;;;;4985042;28;20042;-85
2022/01/28 05:51:32;;;;;;;1.77;1.10;;;7.20;78.50;;;;;;5009913;28;20054;-87
2022/01/28 05:53:58;;;;;;;2.05;1.40;;;7.20;78.40;;;;;;4982724;28;20397;-84
2022/01/28 05:56:25;;;;;;;1.38;1.10;;;7.20;78.40;;;;;;4980532;28;20057;-85
2022/01/28 05:58:52;;;;;;;3.33;1.30;;;7.20;78.40;;;;;;4981436;28;20034;-86
2022/01/28 06:01:18;;;;;;;1.58;1.33;;;7.10;78.40;;;;;;4986776;28;20026;-86
2022/01/28 06:03:44;;;;;;;1.35;1.08;;;7.10;78.40;;;;;;5032516;28;20037;-86
2022/01/28 06:06:22;;;;;;;1.50;1.10;;;7.10;78.40;;;;;;4980637;28;20038;-87
2022/01/28 06:08:53;;;;;;;1.17;1.05;;;7.10;78.50;;;;;;4997196;28;20382;-85
2022/01/28 06:11:21;;;;;;;2.10;1.08;;;7.10;78.40;;;;;;4996755;28;20057;-86
2022/01/28 06:13:47;;;;;;;1.98;1.13;;;7.00;78.40;;;;;;4980967;28;20470;-86
2022/01/28 06:16:14;;;;;;;2.58;1.38;;;7.00;78.40;;;;;;4984540;28;20029;-86
2022/01/28 06:18:41;;;;;;;1.20;1.10;;;7.10;78.50;;;;;;5032261;28;20103;-85
2022/01/28 06:21:07;;;;;;;1.25;1.08;;;7.00;78.40;;;;;;5021779;28;20494;-86
2022/01/28 06:23:33;;;;;;;1.80;1.35;;;7.00;78.40;;;;;;5027999;28;20041;-85
2022/01/28 06:25:59;;;;;;;1.70;1.10;;;7.00;78.40;;;;;;5012482;28;20478;-86
2022/01/28 06:28:25;;;;;;;2.97;1.50;;;7.00;78.40;;;;;;5029244;28;20024;-85
2022/01/28 06:30:51;;;;;;;1.95;1.38;;;7.00;78.40;;;;;;5013334;28;20140;-86
2022/01/28 06:33:17;;;;;;;1.45;1.10;;;7.00;78.40;;;;;;5004455;28;20105;-86
2022/01/28 06:35:45;;;;;;;1.92;1.20;;;7.00;78.50;;;;;;5012698;28;20382;-86
2022/01/28 06:38:12;;;;;;;1.63;1.08;;;7.00;78.50;;;;;;5011388;28;20434;-87
2022/01/28 06:40:38;;;;;;;1.85;1.17;;;6.90;78.50;;;;;;5032151;28;20033;-86
2022/01/28 06:43:08;;;;;;;2.15;1.10;;;6.90;78.40;;;;;;5015577;28;20037;-86
2022/01/28 06:45:34;;;;;;;1.25;1.15;;;6.90;78.50;;;;;;5029185;28;20033;-85
2022/01/28 06:48:00;;;;;;;1.48;1.30;;;7.00;78.60;;;;;;4999886;28;20035;-86
2022/01/28 06:50:26;;;;;;;2.05;1.20;;;6.90;78.50;;;;;;5014870;28;20057;-86
2022/01/28 06:52:52;;;;;;;1.20;1.10;;;6.90;78.50;;;;;;5015326;28;20029;-86
2022/01/28 06:55:27;;;;;;;2.08;1.33;;;6.90;78.50;;;;;;5031930;28;20032;-87
2022/01/28 06:57:56;;;;;;;3.00;1.55;;;6.90;78.50;;;;;;5012725;28;20030;-86
2022/01/28 07:00:25;;;;;;;1.95;1.10;;;6.90;78.50;;;;;;5012880;28;20033;-87
2022/01/28 07:02:51;;;;;;;2.40;1.20;;;6.90;78.50;;;;;;5012141;28;20513;-86
2022/01/28 07:05:17;;;;;;;1.70;1.10;;;6.90;78.50;;;;;;5012759;28;20022;-84
2022/01/28 07:07:47;;;;;;;1.67;1.20;;;6.90;78.60;;;;;;4996066;28;20471;-84
2022/01/28 07:10:26;;;;;;;1.40;1.20;;;6.90;78.60;;;;;;4997467;28;20421;-83
2022/01/28 07:13:02;;;;;;;1.92;1.30;;;6.90;78.60;;;;;;4992191;28;20101;-82
2022/01/28 07:15:31;;;;;;;2.05;1.20;;;6.90;78.70;;;;;;5014249;28;20116;-83
2022/01/28 07:18:02;;;;;;;1.70;1.10;;;6.90;78.60;;;;;;5016023;28;20412;-85
2022/01/28 07:20:36;;;;;;;2.67;1.45;;;6.90;78.60;;;;;;4995448;28;20040;-87
2022/01/28 07:23:14;;;;;;;1.40;1.30;;;6.90;78.60;;;;;;4994280;28;20029;-87
2022/01/28 07:25:41;;;;;;;1.30;1.20;;;6.90;78.70;;;;;;4975962;28;20820;-86
2022/01/28 07:28:08;;;;;;;3.00;1.20;;;6.90;78.60;;;;;;4993170;28;20037;-84
2022/01/28 07:30:34;;;;;;;1.30;1.20;;;6.90;78.60;;;;;;4982572;28;20429;-87
2022/01/28 07:33:27;;;;;;;3.10;1.27;;;6.90;78.70;;;;;;5017076;28;20113;-84
2022/01/28 07:36:01;;;;;;;1.88;1.20;;;6.90;78.80;;;;;;5015805;28;20040;-86
2022/01/28 07:38:26;;;;;;;2.97;1.40;;;6.90;78.60;;;;;;4981298;28;20030;-85
2022/01/28 07:40:52;;;;;;;1.75;1.20;;;6.80;78.60;;;;;;4998211;28;20067;-85
2022/01/28 07:43:25;;;;;;;2.20;1.40;;;6.90;78.70;;;;;;4981540;28;20051;-84
2022/01/28 07:45:52;;;;;;;3.05;1.40;;;6.90;78.70;;;;;;5030662;28;20042;-90
2022/01/28 07:48:17;;;;;;;1.75;1.38;;;6.90;78.70;;;;;;4998900;28;20022;-84
2022/01/28 07:50:43;;;;;;;2.17;1.30;;;6.90;78.70;;;;;;4998693;28;20382;-83
2022/01/28 07:53:39;;;;;;;1.52;1.17;;;6.80;78.70;;;;;;5014385;28;20425;-86
2022/01/28 07:56:28;;;;;;;1.65;1.17;;;6.80;78.70;;;;;;5021086;28;20025;-80
2022/01/28 07:58:53;;;;;;;1.98;1.38;;;6.80;78.60;;;;;;5005474;28;20057;-86
2022/01/28 08:01:19;;;;;;;2.22;1.15;;;6.80;78.70;;;;;;5002406;28;20048;-83
2022/01/28 08:03:45;;;;;;;1.63;1.30;;;6.80;78.70;;;;;;5002386;28;20034;-81
2022/01/28 08:06:11;;;;;;;2.13;1.30;;;6.80;78.80;;;;;;4982285;28;20125;-83
2022/01/28 08:08:37;;;;;;;2.55;1.20;;;6.80;78.80;;;;;;4978412;28;20093;-86
2022/01/28 08:11:03;;;;;;;2.80;1.63;;;6.80;78.70;;;;;;4966409;28;20060;-81
2022/01/28 08:13:29;;;;;;;1.77;1.25;;;6.90;78.80;;;;;;5004453;28;20109;-82
2022/01/28 08:15:54;;;;;;;1.33;1.23;;;6.80;78.80;;;;;;4998042;28;20133;-85
2022/01/28 08:18:20;;;;;;;1.75;1.27;;;6.80;78.80;;;;;;4991777;28;20472;-80
2022/01/28 08:20:46;;;;;;;1.42;1.30;;;6.80;78.80;;;;;;5013485;28;20405;-82
2022/01/28 08:23:13;;;;;;;1.77;1.25;;;6.80;78.80;;;;;;5003477;28;20103;-81
2022/01/28 08:25:38;;;;;;;1.45;1.20;;;6.80;78.80;;;;;;5005229;28;20063;-81
2022/01/28 08:28:05;;;;;;;2.40;1.15;;;6.80;78.80;;;;;;4987829;28;20557;-81
2022/01/28 08:30:37;;;;;;;1.90;1.33;;;6.80;78.80;;;;;;4991412;28;20037;-80
2022/01/28 08:33:03;;;;;;;2.05;1.25;;;6.80;78.80;;;;;;5033679;28;20112;-81
2022/01/28 08:35:31;;;;;;;1.10;1.10;;;6.80;78.80;;;;;;5018671;28;20033;-80
2022/01/28 08:37:58;;;;;;;1.55;1.38;;;6.80;78.80;;;;;;4984589;28;20080;-81
2022/01/28 08:40:26;;;;;;;2.03;1.20;;;6.80;78.80;;;;;;5002403;28;20028;-83
2022/01/28 08:43:02;;;;;;;3.63;1.17;;;6.80;78.80;;;;;;5021204;28;20025;-83
2022/01/28 08:45:28;;;;;;;2.60;1.30;;;6.80;78.80;;;;;;5019555;28;20037;-80
2022/01/28 08:47:55;;;;;;;2.10;1.20;;;6.80;78.80;;;;;;5010055;28;20164;-83
2022/01/28 08:50:21;;;;;;;2.55;1.30;;;6.80;78.80;;;;;;5010384;28;20103;-81
2022/01/28 08:52:47;;;;;;;1.35;1.25;;;6.80;78.80;;;;;;5015802;28;20116;-81
2022/01/28 08:55:14;;;;;;;1.55;1.40;;;6.80;78.80;;;;;;4983076;28;20399;-84
2022/01/28 08:57:43;;;;;;;2.17;1.40;;;6.80;78.80;;;;;;5016415;28;20029;-80
2022/01/28 09:00:18;;;;;;;1.92;1.38;;;6.80;78.80;;;;;;5023859;28;20029;-80
2022/01/28 09:02:44;;;;;;;;;;;6.80;78.80;;;;;;5012310;28;20033;-80
2022/01/28 09:05:10;;;;;;;1.38;1.27;;;6.80;78.80;;;;;;5027368;28;19919;-81
2022/01/28 09:07:36;;;;;;;2.42;1.38;;;6.80;78.70;;;;;;5019430;28;20045;-81
2022/01/28 09:10:10;;;;;;;1.30;1.20;;;6.80;78.80;;;;;;5010877;28;20026;-81
2022/01/28 09:12:48;;;;;;;1.73;1.45;;;6.80;78.90;;;;;;5030696;28;20474;-81
2022/01/28 09:15:15;;;;;;;1.30;1.20;;;6.80;78.90;;;;;;5002613;28;20559;-80
2022/01/28 09:17:41;;;;;;;1.42;1.30;;;6.80;78.90;;;;;;5012601;28;20136;-79
2022/01/28 09:20:07;;;;;;;1.38;1.20;;;6.80;78.90;;;;;;4988819;28;20129;-81
2022/01/28 09:22:33;;;;;;;2.10;1.38;;;6.80;79.00;;;;;;4986854;28;20038;-81
2022/01/28 09:24:59;;;;;;;3.47;1.38;;;6.80;79.00;;;;;;4997267;28;20401;-81
2022/01/28 09:27:25;;;;;;;2.10;1.40;;;6.80;79.00;;;;;;4999587;28;20041;-80
2022/01/28 09:29:50;;;;;;;2.42;1.23;;;6.80;79.00;;;;;;5014409;28;20394;-81
2022/01/28 09:32:16;;;;;;;2.00;1.33;;;6.80;79.00;;;;;;4998701;28;20030;-80
2022/01/28 09:34:44;;;;;;;2.35;1.58;;;6.80;79.00;;;;;;4979004;28;20429;-82
2022/01/28 09:37:13;;;;;;;2.35;1.40;;;6.80;79.00;;;;;;4995227;28;20025;-80
2022/01/28 09:39:43;;;;;;;2.67;1.27;;;6.90;79.10;;;;;;5008813;28;20093;-81
2022/01/28 09:42:13;;;;;;;2.17;1.58;;;6.90;79.10;;;;;;4998858;28;20120;-81
2022/01/28 09:44:41;;;;;;;2.15;1.40;;;6.90;79.00;;;;;;5013437;28;20034;-81
2022/01/28 09:47:07;;;;;;;2.30;1.30;;;6.90;79.00;;;;;;4995492;28;20117;-80
2022/01/28 09:49:33;;;;;;;2.15;1.33;;;6.90;79.00;;;;;;4994781;28;20053;-81
2022/01/28 09:51:59;;;;;;;2.47;1.50;;;7.00;79.10;;;;;;4996289;28;20467;-81
2022/01/28 09:54:25;;;;;;;2.60;1.52;;;7.00;79.10;;;;;;4984251;28;20037;-81
2022/01/28 09:56:51;;;;;;;1.60;1.50;;;7.00;79.10;;;;;;5004789;28;20168;-82
2022/01/28 09:59:17;;;;;;;2.20;1.30;;;7.00;79.10;;;;;;4981946;28;20026;-81
2022/01/28 10:01:50;;;;;;;4.57;1.80;;;7.00;79.10;;;;;;5009397;28;20041;-82
2022/01/28 10:04:18;;;;;;;3.42;1.50;;;7.00;79.20;;;;;;4994593;28;20068;-80
2022/01/28 10:06:44;;;;;;;2.55;1.73;;;7.10;79.10;;;;;;5015077;28;20041;-81
2022/01/28 10:09:12;;;;;;;2.25;1.35;;;7.10;79.10;;;;;;5012819;28;20029;-81
2022/01/28 10:11:40;;;;;;;2.92;1.50;;;7.10;79.10;;;;;;4994735;28;20025;-83
2022/01/28 10:14:12;;;;;;;2.60;1.55;;;7.20;79.20;;;;;;5005976;28;20092;-81
2022/01/28 10:16:38;;;;;;;1.55;1.30;;;7.20;79.10;;;;;;5014765;28;20033;-82
2022/01/28 10:19:05;;;;;;;2.78;1.60;;;7.20;79.10;;;;;;5011816;28;20064;-80
2022/01/28 10:21:38;;;;;;;2.33;1.40;;;7.20;79.10;;;;;;5033048;28;20039;-80
2022/01/28 10:24:10;;;;;;;4.18;1.58;;;7.20;79.10;;;;;;5016227;28;20071;-81
2022/01/28 10:26:42;;;;;;;3.22;1.50;;;7.20;79.70;;;;;;5015001;28;20474;-80
2022/01/28 10:29:20;;;;;;;3.17;1.60;;;7.30;79.10;;;;;;5020137;28;20021;-80
2022/01/28 10:32:04;;;;;;;2.15;1.40;;;7.30;79.10;;;;;;5027339;28;20579;-80
2022/01/28 10:34:33;;;;;;;2.42;1.50;;;7.30;79.20;;;;;;5006500;28;20091;-81
2022/01/28 10:37:08;;;;;;;3.33;1.48;;;7.30;79.00;;;;;;5034365;28;20108;-80
2022/01/28 10:39:50;;;;;;;1.88;1.35;;;7.40;79.20;;;;;;5034103;28;20600;-81
2022/01/28 10:42:25;;;;;;;3.00;1.40;;;7.40;79.50;;;;;;5025282;28;20080;-80
2022/01/28 10:45:11;;;;;;;2.38;1.38;;;7.40;79.20;;;;;;5014359;28;20037;-80
2022/01/28 10:47:45;;;;;;;4.50;1.52;;;7.40;79.20;;;;;;4997950;28;20132;-82
2022/01/28 10:50:35;;;;;;;2.37;1.40;;;7.40;79.20;;;;;;5029721;28;20033;-81
2022/01/28 10:53:09;;;;;;;1.95;1.50;;;7.50;79.40;;;;;;5018373;28;20294;-81
2022/01/28 10:55:58;;;;;;;2.93;1.40;;;7.50;79.40;;;;;;5012566;28;20116;-79
2022/01/28 10:58:26;;;;;;;2.90;1.58;;;7.50;79.40;;;;;;5013531;28;20025;-80
2022/01/28 11:00:57;;;;;;;3.38;1.75;;;7.50;79.30;;;;;;5013902;28;20079;-80
2022/01/28 11:06:26;;;;;;;3.30;1.60;;;7.60;79.50;;;;;;5016666;28;20133;-80
2022/01/28 11:08:53;;;;;;;2.88;1.40;;;7.60;79.50;;;;;;5015393;28;20041;-81
2022/01/28 11:11:20;;;;;;;4.25;1.73;;;7.70;79.50;;;;;;5015540;28;20021;-81
2022/01/28 11:13:46;;;;;;;2.65;1.35;;;7.70;79.60;;;;;;4996694;28;20120;-81
2022/01/28 11:16:13;;;;;;;5.38;1.58;;;7.70;79.60;;;;;;4999869;28;20045;-81
2022/01/28 11:18:39;;;;;;;3.33;1.40;;;7.70;79.70;;;;;;5011058;28;20107;-84
2022/01/28 11:21:13;;;;;;;4.55;1.55;;;7.80;79.70;;;;;;5012648;28;20065;-82
2022/01/28 11:24:07;;;;;;;2.90;1.52;;;7.80;80.30;;;;;;5010433;28;20116;-85
2022/01/28 11:26:54;;;;;;;3.80;1.58;;;7.80;80.40;;;;;;5018880;28;20129;-84
2022/01/28 11:29:25;;;;;;;2.50;1.33;;;7.80;79.80;;;;;;5005870;28;20032;-81
2022/01/28 11:31:53;;;;;;;3.67;1.40;;;7.90;79.80;;;;;;5013367;28;20032;-81
2022/01/28 11:34:23;;;;;;;3.28;1.50;;;7.90;79.80;;;;;;5026053;28;20041;-82
2022/01/28 11:37:26;;;;;;;3.95;1.50;;;7.90;79.80;;;;;;5025099;28;20025;-82
2022/01/28 11:40:04;;;;;;;2.60;1.35;;;7.90;80.00;;;;;;5015635;28;20068;-90
2022/01/28 11:42:30;;;;;;;5.18;1.60;;;8.00;79.80;;;;;;5027330;28;20041;-89
2022/01/28 11:44:59;;;;;;;4.85;1.60;;;8.00;79.90;;;;;;5019120;28;20030;-88
2022/01/28 11:47:33;;;;;;;2.15;1.15;;;8.10;79.90;;;;;;5025190;28;20037;-79
2022/01/28 11:50:04;;;;;;;2.67;1.30;;;8.10;79.90;;;;;;5025249;28;20021;-87
2022/01/28 11:52:32;;;;;;;4.72;1.85;;;8.10;79.90;;;;;;5023805;28;20692;-82
2022/01/28 11:55:17;;;;;;;3.13;1.30;;;8.10;79.90;;;;;;5030876;28;20029;-82
2022/01/28 11:57:56;;;;;;;3.40;1.30;;;8.20;80.10;;;;;;5025144;28;20094;-81
2022/01/28 12:00:36;;;;;;;3.35;1.30;;;8.20;80.00;;;;;;5008056;28;20280;-84
2022/01/28 12:03:18;;;;;;;4.72;1.58;;;8.20;79.90;;;;;;5034369;28;20021;-83
2022/01/28 12:05:44;;;;;;;2.92;1.20;;;8.20;80.00;;;;;;5020278;28;20080;-82
2022/01/28 12:08:13;;;;;;;2.42;1.35;;;8.30;80.00;;;;;;5016956;28;20038;-87
2022/01/28 12:10:43;;;;;;;1.65;1.17;;;8.30;80.00;;;;;;5017662;28;20128;-82
2022/01/28 12:13:16;;;;;;;4.13;1.27;;;8.30;80.00;;;;;;5015568;28;20509;-82
2022/01/28 12:16:00;;;;;;;2.60;1.30;;;8.40;80.00;;;;;;4999325;28;20030;-84
2022/01/28 12:18:48;;;;;;;4.28;1.50;;;8.40;80.10;;;;;;5024119;28;20054;-83
2022/01/28 12:21:21;;;;;;;1.35;1.17;;;8.40;80.20;;;;;;5016698;28;20041;-82
2022/01/28 12:23:47;;;;;;;3.72;1.30;;;8.50;80.00;;;;;;5033655;28;20051;-83
2022/01/28 12:26:17;;;;;;;2.90;1.20;;;8.50;80.00;;;;;;5020193;28;20045;-90
2022/01/28 12:28:53;;;;;;;2.50;1.30;;;8.50;80.00;;;;;;5032313;28;20026;-84
2022/01/28 12:31:31;;;;;;;3.30;1.75;;;8.50;80.10;;;;;;5010244;28;20057;-83
2022/01/28 12:34:03;;;;;;;2.08;1.15;;;8.60;80.10;;;;;;5007729;28;20092;-83
2022/01/28 12:36:38;;;;;;;4.95;1.40;;;8.60;80.00;;;;;;5006811;28;20026;-81
2022/01/28 12:39:21;;;;;;;3.25;1.40;;;8.70;80.10;;;;;;5005596;28;20053;-81
2022/01/28 12:42:02;;;;;;;2.28;1.30;;;8.70;80.00;;;;;;5025575;28;20386;-80
2022/01/28 12:44:31;;;;;;;3.95;1.35;;;8.80;80.00;;;;;;5010014;28;20091;-82
2022/01/28 12:47:09;;;;;;;2.85;1.15;;;8.80;79.90;;;;;;5015365;28;20163;-83
2022/01/28 12:49:41;;;;;;;2.83;1.20;;;8.80;80.00;;;;;;4998165;28;20487;-81
2022/01/28 12:52:11;;;;;;;2.08;1.35;;;8.90;79.90;;;;;;5022043;28;20072;-80
2022/01/28 12:54:40;;;;;;;1.35;1.13;;;8.90;79.90;;;;;;5013298;28;20041;-82
2022/01/28 12:57:09;;;;;;;2.75;1.42;;;8.90;79.90;;;;;;5002724;28;20014;-82
2022/01/28 12:59:35;;;;;;;2.60;1.30;;;9.00;80.00;;;;;;5005321;28;20426;-81
2022/01/28 13:02:01;;;;;;;3.95;1.23;;;9.00;79.90;;;;;;5019316;28;20045;-81
2022/01/28 13:09:53;;;;;;;4.55;1.50;;;9.10;79.90;;;;;;5008885;28;20038;-81
2022/01/28 13:12:48;;;;;;;2.58;1.30;;;9.10;79.90;;;;;;4996924;28;20068;-82
2022/01/28 13:15:19;;;;;;;4.90;1.60;;;9.20;80.00;;;;;;5013424;28;20038;-82
2022/01/28 13:18:03;;;;;;;1.90;1.25;;;9.20;79.90;;;;;;5007164;28;20070;-81
2022/01/28 13:20:35;;;;;;;4.75;1.40;;;9.20;80.10;;;;;;5014619;28;20064;-83
2022/01/28 13:23:04;;;;;;;2.97;1.38;;;9.30;80.00;;;;;;5008227;28;20029;-86
2022/01/28 13:26:03;;;;;;;1.52;1.20;;;9.30;79.90;;;;;;4999641;28;20044;-86
2022/01/28 13:28:29;;;;;;;3.13;1.35;;;9.40;79.90;;;;;;5028541;28;20073;-86
2022/01/28 13:30:56;;;;;;;2.05;1.15;;;9.40;79.70;;;;;;4983780;28;20046;-85
2022/01/28 13:33:29;;;;;;;3.00;1.58;;;9.50;79.80;;;;;;4999565;28;20072;-87
2022/01/28 13:35:58;;;;;;;1.83;1.38;;;9.50;79.90;;;;;;5014839;28;20473;-83
2022/01/28 13:38:24;;;;;;;2.53;1.40;;;9.50;79.80;;;;;;4964408;28;20030;-85
2022/01/28 13:40:50;;;;;;;2.60;1.23;;;9.50;79.80;;;;;;4980383;28;20501;-84
2022/01/28 13:43:19;;;;;;;2.72;1.20;;;9.60;79.90;;;;;;4977668;28;20033;-83
2022/01/28 13:45:58;;;;;;;2.17;1.30;;;9.60;79.90;;;;;;5019116;28;20029;-83
2022/01/28 13:48:34;;;;;;;3.05;1.40;;;9.60;79.90;;;;;;5019329;28;20055;-85
2022/01/28 13:51:16;;;;;;;3.03;1.20;;;9.70;80.00;;;;;;5019406;28;20485;-84
2022/01/28 13:56:48;;;;;;;2.05;1.40;;;9.70;80.00;;;;;;5013385;28;20025;-84
2022/01/28 13:59:25;;;;;;;2.22;1.38;;;9.80;80.10;;;;;;4992827;28;20034;-84
2022/01/28 14:01:56;;;;;;;1.50;1.10;;;9.80;80.10;;;;;;4980865;28;20635;-84
2022/01/28 14:04:32;;;;;;;1.88;1.40;;;9.80;80.10;;;;;;5003702;28;20100;-85
2022/01/28 14:07:21;;;;;;;1.52;1.10;;;9.80;80.20;;;;;;4999438;28;20068;-84
2022/01/28 14:09:46;;;;;;;2.65;1.17;;;9.90;80.30;;;;;;5015523;28;20084;-84
2022/01/28 14:12:40;;;;;;;3.17;1.27;;;9.90;80.20;;;;;;5015681;28;20041;-85
2022/01/28 14:15:27;;;;;;;;;;;9.90;80.20;;;;;;5006372;28;20030;-84
2022/01/28 14:17:55;;;;;;;1.45;1.10;;;10.00;80.20;;;;;;4980307;28;19917;-83
2022/01/28 14:20:22;;;;;;;3.00;1.30;;;10.00;80.10;;;;;;4978897;28;20042;-85
2022/01/28 14:22:48;;;;;;;3.25;1.33;;;10.00;80.20;;;;;;4979616;28;20122;-86
2022/01/28 14:25:16;;;;;;;2.15;1.40;;;10.10;80.40;;;;;;4984845;28;20028;-83
2022/01/28 14:30:23;;;;;;;2.58;1.30;;;10.20;80.30;;;;;;4978984;28;20040;-84
2022/01/28 14:32:51;;;;;;;2.33;1.05;;;10.20;80.30;;;;;;4995091;28;20045;-84
2022/01/28 14:35:17;;;;;;;2.53;1.17;;;10.20;80.20;;;;;;4980858;28;20034;-86
2022/01/28 14:37:44;;;;;;;1.83;1.10;;;10.30;80.30;;;;;;4982287;28;20025;-84
2022/01/28 14:40:13;;;;;;;2.97;1.30;;;10.30;80.20;;;;;;4999277;28;20068;-82
2022/01/28 14:42:45;;;;;;;3.50;1.35;;;10.30;80.20;;;;;;4982126;28;20073;-84
2022/01/28 14:45:11;;;;;;;3.67;1.35;;;10.30;80.20;;;;;;4983559;28;20037;-84